Aeroporto :
LOGIN :

Iscrizione | Disclaimer

   EN    FR    IT 

 










Sommario :    VFR   VFR Marginale   IFR   IFR Intensivo   IFR Molto Intensivo
Visibilità : 
Base nubi : 
>= 8 km
>= 3000ft
5 / 8 km
1000 / 3000 ft
1500m / 5 km
500 / 1000 ft
800 / 1500m
200 / 500 ft
< 800m
< 200 ft
Simboli :   Temporali  Nebbia  Neve Forte  Precipitazioni Forti  Vento > 20 kt
SIGMETs :   Varie  Temporali  Ghiacco  Turbolenza  Onda orograficha  Ceneri Vulcaniche






- Altitudine del aeroporto : 268 ft
- Codice IATA : BFS


EGAA - Belfast Aldergrove

ULTIMO METAR :
  • 191320Z 16013KT 9000 -RA SCT020 BKN026 09/09 Q1006

METARs OBSOLETI :
  • 191250Z 15011KT 9999 -RA FEW012 SCT021 BKN037 09/08 Q1007
  • 191220Z 14014KT 5000 -RA FEW015 SCT018 BKN025 09/08 Q1007
  • 191150Z 14012KT 9999 -RA SCT025 BKN036 09/08 Q1007
  • 191120Z 15012KT 8000 -RA FEW019 SCT027 BKN034 09/08 Q1008
  • 191050Z 14014KT 9999 -RA SCT019 BKN032 09/07 Q1008

TAF TAF EGAA
Valido dal 19 a 12 ore il 20 a 12 ore UTC


191101Z 1912/2012 14012KT 9999 FEW018 SCT025
TEMPO 1912/1917 7000 RA -RADZ SCT008 BKN012
PROB30
TEMPO 1912/1915 15015G25KT
PROB40
TEMPO 1918/2001 1200 BR MIFG BKN001
PROB40
TEMPO 2001/2012 7000 SHRA RA BKN014
BECMG 2006/2009 15018G28KT



MetMap, La meteo Aeronautica in un colpo d'occhio ! - Copyright ORBIFLY Dicembre 2007 - Disclaimer

ORBIFLY MET'MAP TEAM :

Programmazione e sviluppo : Alexandra Zaïnal
Concezione e sviluppo : Baudouin d'Aumeries
Co-Programmazione e sviluppo : Marc-Olivier Méhu
Supporto tecnico e logistico : Manuel Goepfert
Aiuto per la traduzione : Arnaldo La Scala

Contatto : metmap@orbifly.com




FONTI E CREDITI :

   NOAA